createdAt,value
2022-08-16T00:01:34.008Z,24.67
2022-08-16T00:04:05.277Z,24.67
2022-08-16T00:06:33.945Z,24.60
2022-08-16T00:09:05.388Z,24.53
2022-08-16T00:11:34.719Z,24.54
2022-08-16T00:14:08.715Z,24.58
2022-08-16T00:17:06.638Z,24.55
2022-08-16T00:19:41.766Z,24.55
2022-08-16T00:22:13.527Z,24.51
2022-08-16T00:24:44.743Z,24.45
2022-08-16T00:27:15.508Z,24.44
2022-08-16T00:29:47.474Z,24.44
2022-08-16T00:32:18.203Z,24.43
2022-08-16T00:34:53.262Z,24.40
2022-08-16T00:37:25.146Z,24.38
2022-08-16T00:40:33.726Z,24.38
2022-08-16T00:43:11.679Z,24.36
2022-08-16T00:45:58.384Z,24.38
2022-08-16T00:48:44.000Z,24.36
2022-08-16T00:51:16.219Z,24.32
2022-08-16T00:53:46.973Z,24.31
2022-08-16T00:56:58.504Z,24.28
2022-08-16T00:59:16.370Z,24.30
2022-08-16T01:01:46.585Z,24.33
2022-08-16T01:04:28.909Z,24.30
2022-08-16T01:07:01.792Z,24.31
2022-08-16T01:09:33.465Z,24.34
2022-08-16T01:12:04.846Z,24.29
2022-08-16T01:14:45.202Z,24.28
2022-08-16T01:17:20.251Z,24.25
2022-08-16T01:19:57.310Z,24.25
2022-08-16T01:22:59.279Z,24.17
2022-08-16T01:25:36.289Z,24.15
2022-08-16T01:28:09.518Z,24.08
2022-08-16T01:30:49.540Z,24.05
2022-08-16T01:33:22.445Z,24.07
2022-08-16T01:35:57.606Z,24.01
2022-08-16T01:38:30.861Z,24.00
2022-08-16T01:41:06.479Z,23.98
2022-08-16T01:43:38.439Z,24.01
2022-08-16T01:46:30.011Z,23.98
2022-08-16T01:49:06.018Z,23.96
2022-08-16T01:51:39.401Z,23.86
2022-08-16T01:54:09.564Z,23.87
2022-08-16T01:56:51.791Z,23.85
2022-08-16T01:59:24.755Z,23.79
2022-08-16T02:01:59.703Z,23.78
2022-08-16T02:04:48.100Z,23.73
2022-08-16T02:07:23.724Z,23.77
2022-08-16T02:09:59.040Z,23.73
2022-08-16T02:12:49.333Z,23.74
2022-08-16T02:15:25.400Z,23.75
2022-08-16T02:17:56.278Z,23.71
2022-08-16T02:20:26.353Z,23.74
2022-08-16T02:22:56.742Z,23.77
2022-08-16T02:25:52.077Z,23.76
2022-08-16T02:28:19.321Z,23.71
2022-08-16T02:30:51.773Z,23.68
2022-08-16T02:33:24.960Z,23.66
2022-08-16T02:36:47.335Z,23.63
2022-08-16T02:39:03.624Z,23.57
2022-08-16T02:41:37.415Z,23.54
2022-08-16T02:44:13.926Z,23.54
2022-08-16T02:46:49.816Z,23.55
2022-08-16T02:49:20.799Z,23.54
2022-08-16T02:51:50.219Z,23.50
2022-08-16T02:54:19.134Z,23.50
2022-08-16T02:56:52.689Z,23.47
2022-08-16T02:59:23.954Z,23.46
2022-08-16T03:01:52.455Z,23.45
2022-08-16T03:04:50.301Z,23.38
2022-08-16T03:07:17.431Z,23.32
2022-08-16T03:10:00.655Z,23.31
2022-08-16T03:12:36.797Z,23.28
2022-08-16T03:15:10.469Z,23.26
2022-08-16T03:17:53.843Z,23.26
2022-08-16T03:20:32.207Z,23.22
2022-08-16T03:23:02.173Z,23.16
2022-08-16T03:25:40.948Z,23.17
2022-08-16T03:28:16.996Z,23.17
2022-08-16T03:30:48.697Z,23.16
2022-08-16T03:33:18.436Z,23.13
2022-08-16T03:36:29.787Z,23.15
2022-08-16T03:38:53.280Z,23.23
2022-08-16T03:41:25.092Z,23.28
2022-08-16T03:43:57.531Z,23.34
2022-08-16T03:46:47.799Z,23.31
2022-08-16T03:49:36.560Z,23.29
2022-08-16T03:52:08.729Z,23.34
2022-08-16T03:54:38.822Z,23.32
2022-08-16T03:57:22.465Z,23.31
2022-08-16T03:59:53.008Z,23.34
2022-08-16T04:02:31.704Z,23.19
2022-08-16T04:05:03.918Z,23.17
2022-08-16T04:07:34.003Z,23.11
2022-08-16T04:10:27.984Z,23.16
2022-08-16T04:12:59.430Z,23.13
2022-08-16T04:15:31.451Z,23.04
2022-08-16T04:18:30.968Z,22.97
2022-08-16T04:21:00.676Z,22.99
2022-08-16T04:23:33.367Z,22.92
2022-08-16T04:26:02.298Z,22.85
2022-08-16T04:28:55.654Z,22.88
2022-08-16T04:31:23.803Z,22.86
2022-08-16T04:33:59.499Z,22.84
2022-08-16T04:36:29.117Z,22.89
2022-08-16T04:38:57.917Z,22.91
2022-08-16T04:41:32.928Z,22.85
2022-08-16T04:44:32.589Z,22.83
2022-08-16T04:47:02.480Z,22.80
2022-08-16T04:49:43.791Z,22.84
2022-08-16T04:52:33.518Z,22.84
2022-08-16T04:55:08.332Z,22.86
2022-08-16T04:57:41.352Z,22.90
2022-08-16T05:00:31.111Z,22.93
2022-08-16T05:03:09.457Z,22.89
2022-08-16T05:05:59.546Z,22.99
2022-08-16T05:08:32.389Z,23.07
2022-08-16T05:11:08.537Z,23.14
2022-08-16T05:13:42.329Z,23.21
2022-08-16T05:16:21.471Z,23.24
2022-08-16T05:18:56.646Z,23.30
2022-08-16T05:21:35.764Z,23.35
2022-08-16T05:24:09.931Z,23.36
2022-08-16T05:26:43.476Z,23.40
2022-08-16T05:29:20.736Z,23.47
2022-08-16T05:32:32.937Z,23.46
2022-08-16T05:34:55.483Z,23.45
2022-08-16T05:37:25.932Z,23.46
2022-08-16T05:39:57.667Z,23.53
2022-08-16T05:42:35.890Z,23.58
2022-08-16T05:45:07.321Z,23.65
2022-08-16T05:47:43.368Z,23.80
2022-08-16T05:50:19.089Z,23.85
2022-08-16T05:52:51.223Z,23.89
2022-08-16T05:55:21.144Z,23.98
2022-08-16T05:57:52.558Z,24.05
2022-08-16T06:00:22.913Z,24.10
2022-08-16T06:02:54.739Z,24.14
2022-08-16T06:05:42.107Z,24.21
2022-08-16T06:08:32.437Z,24.31
2022-08-16T06:11:11.024Z,24.41
2022-08-16T06:13:43.461Z,24.47
2022-08-16T06:16:18.046Z,24.57
2022-08-16T06:18:47.928Z,24.66
2022-08-16T06:21:23.798Z,24.64
2022-08-16T06:24:00.996Z,24.66
2022-08-16T06:26:36.753Z,24.74
2022-08-16T06:29:07.595Z,24.86
2022-08-16T06:31:46.744Z,24.95
2022-08-16T06:34:55.754Z,25.01
2022-08-16T06:37:10.528Z,25.10
2022-08-16T06:39:46.751Z,25.19
2022-08-16T06:42:24.296Z,25.30
2022-08-16T06:45:09.734Z,25.37
2022-08-16T06:47:52.864Z,25.44
2022-08-16T06:50:28.812Z,25.54
2022-08-16T06:53:07.325Z,25.63
2022-08-16T06:55:43.352Z,25.71
2022-08-16T06:58:21.879Z,25.82
2022-08-16T07:00:59.825Z,25.89
2022-08-16T07:03:32.389Z,25.97
2022-08-16T07:06:05.737Z,26.06
2022-08-16T07:08:43.676Z,26.11
2022-08-16T07:11:13.949Z,26.16
2022-08-16T07:13:58.807Z,26.22
2022-08-16T07:16:42.007Z,26.22
2022-08-16T07:19:11.825Z,26.31
2022-08-16T07:21:50.965Z,26.37
2022-08-16T07:24:31.110Z,26.44
2022-08-16T07:27:12.504Z,26.54
2022-08-16T07:29:43.294Z,26.60
2022-08-16T07:32:13.441Z,26.68
2022-08-16T07:34:48.172Z,26.78
2022-08-16T07:37:18.723Z,26.88
2022-08-16T07:40:12.796Z,26.96
2022-08-16T07:42:46.864Z,27.07
2022-08-16T07:45:16.960Z,27.08
2022-08-16T07:47:51.140Z,27.18
2022-08-16T07:50:55.809Z,27.21
2022-08-16T07:53:10.083Z,27.27
2022-08-16T07:55:47.894Z,27.34
2022-08-16T07:58:34.562Z,27.42
2022-08-16T08:01:10.538Z,27.47
2022-08-16T08:03:49.537Z,27.54
2022-08-16T08:06:25.388Z,27.58
2022-08-16T08:08:59.205Z,27.64
2022-08-16T08:11:29.931Z,27.65
2022-08-16T08:14:06.671Z,27.69
2022-08-16T08:16:45.597Z,27.77
2022-08-16T08:19:24.728Z,27.85
2022-08-16T08:21:59.636Z,27.92
2022-08-16T08:24:46.631Z,28.00
2022-08-16T08:27:22.990Z,28.09
2022-08-16T08:30:49.610Z,28.19
2022-08-16T08:32:58.280Z,28.28
2022-08-16T08:35:41.227Z,28.32
2022-08-16T08:38:11.843Z,28.37
2022-08-16T08:40:46.003Z,28.44
2022-08-16T08:43:18.428Z,28.47
2022-08-16T08:45:59.342Z,28.55
2022-08-16T08:48:33.648Z,28.67
2022-08-16T08:51:08.692Z,28.77
2022-08-16T08:53:46.088Z,28.90
2022-08-16T08:56:30.147Z,29.01
2022-08-16T08:59:13.649Z,29.11
2022-08-16T09:01:57.773Z,29.18
2022-08-16T09:04:31.471Z,29.21
2022-08-16T09:07:01.952Z,29.42
2022-08-16T09:09:34.302Z,29.61
2022-08-16T09:12:31.140Z,29.82
2022-08-16T09:15:08.019Z,30.02
2022-08-16T09:17:51.840Z,30.33
2022-08-16T09:20:25.721Z,30.59
2022-08-16T09:22:55.416Z,30.67
2022-08-16T09:25:43.491Z,30.83
2022-08-16T09:29:13.576Z,30.88
2022-08-16T09:31:11.117Z,30.98
2022-08-16T09:33:42.048Z,31.09
2022-08-16T09:36:12.138Z,31.12
2022-08-16T09:39:01.152Z,31.26
2022-08-16T09:41:29.625Z,31.57
2022-08-16T09:44:02.181Z,31.86
2022-08-16T09:46:46.027Z,32.34
2022-08-16T09:49:20.323Z,32.79
2022-08-16T09:51:55.563Z,33.19
2022-08-16T09:54:32.390Z,33.15
2022-08-16T09:57:01.693Z,33.31
2022-08-16T09:59:38.789Z,33.50
2022-08-16T10:02:26.579Z,33.43
2022-08-16T10:04:58.146Z,33.22
2022-08-16T10:07:44.351Z,33.16
2022-08-16T10:10:19.166Z,33.23
2022-08-16T10:13:16.363Z,33.01
2022-08-16T10:15:55.130Z,32.52
2022-08-16T10:19:00.987Z,32.10
2022-08-16T10:21:20.173Z,31.95
2022-08-16T10:23:54.926Z,32.01
2022-08-16T10:27:20.232Z,32.22
2022-08-16T10:29:20.120Z,32.74
2022-08-16T10:31:53.748Z,33.00
2022-08-16T10:34:31.400Z,32.89
2022-08-16T10:37:03.028Z,32.83
2022-08-16T10:39:41.440Z,32.74
2022-08-16T10:42:13.561Z,32.57
2022-08-16T10:44:53.736Z,32.42
2022-08-16T10:47:23.884Z,32.44
2022-08-16T10:49:53.004Z,32.45
2022-08-16T10:52:24.280Z,32.57
2022-08-16T10:55:40.319Z,32.25
2022-08-16T10:57:42.486Z,31.90
2022-08-16T11:00:21.209Z,31.60
2022-08-16T11:02:57.559Z,31.48
2022-08-16T11:08:28.303Z,31.76
2022-08-16T11:11:12.993Z,31.70
2022-08-16T11:14:10.885Z,31.54
2022-08-16T11:19:26.545Z,31.33
2022-08-16T11:22:38.658Z,31.17
2022-08-16T11:25:11.805Z,30.90
2022-08-16T11:27:37.295Z,30.76
2022-08-16T11:30:12.117Z,30.85
2022-08-16T11:32:44.477Z,30.85
2022-08-16T11:35:16.513Z,30.82
2022-08-16T11:40:44.429Z,30.71
2022-08-16T11:43:16.739Z,30.81
2022-08-16T11:45:54.280Z,30.65
2022-08-16T11:48:24.968Z,30.65
2022-08-16T11:50:54.179Z,30.73
2022-08-16T11:53:25.297Z,30.64
2022-08-16T11:55:56.412Z,30.43
2022-08-16T11:58:28.259Z,30.37
2022-08-16T12:00:59.235Z,30.44
2022-08-16T12:03:34.501Z,30.57
2022-08-16T12:06:10.954Z,30.65
2022-08-16T13:11:55.366Z,30.10
2022-08-16T13:14:31.291Z,30.08
2022-08-16T13:17:03.164Z,30.10
2022-08-16T13:20:03.322Z,30.14
2022-08-16T13:22:22.130Z,30.11
2022-08-16T13:24:51.302Z,30.11
2022-08-16T13:27:59.417Z,30.04
2022-08-16T13:30:36.579Z,29.97
2022-08-16T13:33:00.438Z,29.96
2022-08-16T13:35:34.383Z,30.11
2022-08-16T13:38:03.359Z,30.08
2022-08-16T13:40:31.946Z,30.04
2022-08-16T13:43:02.613Z,30.08
2022-08-16T13:45:36.118Z,30.06
2022-08-16T13:48:06.707Z,30.04
2022-08-16T13:50:49.104Z,30.04
2022-08-16T13:53:24.425Z,30.00
2022-08-16T13:55:57.923Z,30.03
2022-08-16T13:58:37.493Z,29.99
2022-08-16T14:01:21.162Z,29.99
2022-08-16T14:03:50.234Z,30.02
2022-08-16T14:06:23.711Z,30.04
2022-08-16T14:09:06.241Z,30.04
2022-08-16T14:11:36.003Z,29.94
2022-08-16T14:14:07.024Z,29.93
2022-08-16T14:16:39.751Z,30.00
2022-08-16T14:19:08.283Z,29.91
2022-08-16T14:21:37.485Z,29.96
2022-08-16T14:24:07.924Z,29.89
2022-08-16T14:26:52.736Z,29.78
2022-08-16T14:29:23.171Z,29.72
2022-08-16T14:31:53.909Z,29.71
2022-08-16T14:34:25.601Z,29.68
2022-08-16T14:36:54.546Z,29.64
2022-08-16T14:39:23.467Z,29.58
2022-08-16T14:41:53.584Z,29.63
2022-08-16T14:44:26.301Z,29.59
2022-08-16T14:46:56.824Z,29.51
2022-08-16T14:49:25.505Z,29.48
2022-08-16T14:51:53.985Z,29.49
2022-08-16T14:54:27.294Z,29.48
2022-08-16T14:56:57.246Z,29.56
2022-08-16T14:59:27.604Z,29.54
2022-08-16T15:02:00.709Z,29.54
2022-08-16T15:04:39.668Z,29.53
2022-08-16T15:07:12.600Z,29.53
2022-08-16T15:09:44.864Z,29.60
2022-08-16T15:12:30.998Z,29.62
2022-08-16T15:15:13.001Z,29.63
2022-08-16T15:17:56.094Z,29.66
2022-08-16T15:20:29.253Z,29.68
2022-08-16T15:23:00.758Z,29.68
2022-08-16T15:25:32.248Z,29.63
2022-08-16T15:28:05.401Z,29.57
2022-08-16T15:30:57.710Z,29.43
2022-08-16T15:33:27.478Z,29.37
2022-08-16T15:35:58.279Z,29.28
2022-08-16T15:38:55.179Z,29.35
2022-08-16T15:41:36.015Z,29.27
2022-08-16T15:44:10.580Z,29.18
2022-08-16T15:46:56.821Z,29.09
2022-08-16T15:49:37.272Z,29.10
2022-08-16T15:52:15.034Z,29.01
2022-08-16T15:54:52.697Z,29.04
2022-08-16T15:57:23.067Z,29.02
2022-08-16T15:59:52.857Z,28.97
2022-08-16T16:02:30.877Z,28.91
2022-08-16T16:05:02.209Z,28.83
2022-08-16T16:07:33.766Z,28.85
2022-08-16T16:10:07.843Z,28.86
2022-08-16T16:12:53.039Z,28.83
2022-08-16T16:15:25.385Z,28.84
2022-08-16T16:17:55.551Z,28.80
2022-08-16T16:20:27.935Z,28.84
2022-08-16T16:22:58.456Z,28.89
2022-08-16T16:25:29.352Z,28.92
2022-08-16T16:27:59.801Z,28.91
2022-08-16T16:30:38.158Z,28.98
2022-08-16T16:33:21.074Z,28.99
2022-08-16T16:35:55.644Z,29.01
2022-08-16T16:38:30.892Z,28.94
2022-08-16T16:41:00.690Z,28.95
2022-08-16T16:43:31.986Z,28.96
2022-08-16T16:46:02.632Z,28.96
2022-08-16T16:48:36.415Z,28.94
2022-08-16T16:51:10.096Z,28.99
2022-08-16T16:53:42.277Z,29.01
2022-08-16T16:56:19.478Z,29.02
2022-08-16T16:58:57.674Z,29.05
2022-08-16T17:01:56.592Z,29.06
2022-08-16T17:04:32.464Z,29.03
2022-08-16T17:07:02.909Z,29.03
2022-08-16T17:09:31.671Z,29.01
2022-08-16T17:12:00.359Z,29.00
2022-08-16T17:14:33.638Z,29.01
2022-08-16T17:17:06.987Z,29.01
2022-08-16T17:19:56.471Z,29.00
2022-08-16T17:22:32.990Z,29.01
2022-08-16T17:25:02.010Z,29.01
2022-08-16T17:27:32.461Z,29.00
2022-08-16T17:30:03.525Z,28.98
2022-08-16T17:32:50.121Z,28.97
2022-08-16T17:35:34.311Z,28.94
2022-08-16T17:38:06.379Z,28.90
2022-08-16T17:40:55.793Z,28.84
2022-08-16T17:43:30.124Z,28.82
2022-08-16T17:45:59.801Z,28.80
2022-08-16T17:48:31.203Z,28.77
2022-08-16T17:51:01.316Z,28.74
2022-08-16T17:53:30.089Z,28.74
2022-08-16T17:55:58.560Z,28.72
2022-08-16T17:58:27.319Z,28.69
2022-08-16T18:00:57.775Z,28.66
2022-08-16T18:04:07.036Z,28.66
2022-08-16T18:06:19.859Z,28.63
2022-08-16T18:08:51.148Z,28.64
2022-08-16T18:11:26.175Z,28.62
2022-08-16T18:13:56.607Z,28.60
2022-08-16T18:16:25.637Z,28.59
2022-08-16T18:18:54.204Z,28.57
2022-08-16T18:21:42.027Z,28.57
2022-08-16T18:24:12.844Z,28.56
2022-08-16T18:26:41.321Z,28.55
2022-08-16T18:29:10.180Z,28.54
2022-08-16T18:31:39.856Z,28.54
2022-08-16T18:34:08.343Z,28.52
2022-08-16T18:36:38.431Z,28.51
2022-08-16T18:39:07.158Z,28.50
2022-08-16T18:41:37.391Z,28.48
2022-08-16T18:44:26.474Z,28.47
2022-08-16T18:46:57.057Z,28.43
2022-08-16T18:49:25.602Z,28.40
2022-08-16T18:51:59.169Z,28.39
2022-08-16T18:54:29.361Z,28.36
2022-08-16T18:56:58.513Z,28.33
2022-08-16T18:59:33.282Z,28.31
2022-08-16T19:02:04.712Z,28.26
2022-08-16T19:04:55.122Z,28.24
2022-08-16T19:07:31.337Z,28.20
2022-08-16T19:10:02.152Z,28.17
2022-08-16T19:12:38.723Z,28.16
2022-08-16T19:15:15.894Z,28.14
2022-08-16T19:17:45.386Z,28.10
2022-08-16T19:20:16.387Z,28.11
2022-08-16T19:23:05.171Z,28.06
2022-08-16T19:25:46.954Z,28.04
2022-08-16T19:28:48.931Z,28.02
2022-08-16T19:31:12.355Z,27.97
2022-08-16T19:33:53.821Z,27.93
2022-08-16T19:36:30.476Z,27.88
2022-08-16T19:39:05.774Z,27.88
2022-08-16T19:41:36.287Z,27.85
2022-08-16T19:44:05.546Z,27.84
2022-08-16T19:46:34.527Z,27.83
2022-08-16T19:49:03.336Z,27.81
2022-08-16T19:51:31.866Z,27.78
2022-08-16T19:54:00.422Z,27.76
2022-08-16T19:56:30.308Z,27.66
2022-08-16T20:01:49.377Z,27.61
2022-08-16T20:04:17.944Z,27.55
2022-08-16T20:06:47.035Z,27.48
2022-08-16T20:09:15.982Z,27.50
2022-08-16T20:11:46.828Z,27.44
2022-08-16T20:14:24.009Z,27.42
2022-08-16T20:16:54.377Z,27.41
2022-08-16T20:19:22.983Z,27.39
2022-08-16T20:21:51.618Z,27.34
2022-08-16T20:24:34.182Z,27.29
2022-08-16T20:27:06.272Z,27.24
2022-08-16T20:29:35.864Z,27.16
2022-08-16T20:32:06.482Z,27.18
2022-08-16T20:34:35.004Z,27.15
2022-08-16T20:37:05.222Z,27.11
2022-08-16T20:39:34.153Z,27.12
2022-08-16T20:42:05.598Z,27.13
2022-08-16T20:44:35.529Z,27.06
2022-08-16T20:47:03.969Z,27.02
2022-08-16T20:49:32.445Z,27.02
2022-08-16T20:52:01.120Z,27.01
2022-08-16T20:54:30.292Z,26.98
2022-08-16T20:56:58.783Z,26.95
2022-08-16T20:59:27.386Z,26.93
2022-08-16T21:01:57.445Z,26.91
2022-08-16T21:04:28.657Z,26.90
2022-08-16T21:06:58.531Z,26.87
2022-08-16T21:09:29.038Z,26.85
2022-08-16T21:12:01.168Z,26.79
2022-08-16T21:14:30.385Z,26.79
2022-08-16T21:17:00.232Z,26.77
2022-08-16T21:19:28.788Z,26.71
2022-08-16T21:21:57.563Z,26.72
2022-08-16T21:24:26.485Z,26.72
2022-08-16T21:26:56.381Z,26.70
2022-08-16T21:29:31.650Z,26.65
2022-08-16T21:32:13.667Z,26.62
2022-08-16T21:34:43.295Z,26.62
2022-08-16T21:37:12.417Z,26.60
2022-08-16T21:39:44.871Z,26.59
2022-08-16T21:42:17.125Z,26.58
2022-08-16T21:44:46.737Z,26.58
2022-08-16T21:47:16.642Z,26.54
2022-08-16T21:49:45.078Z,26.52
2022-08-16T21:52:26.333Z,26.52
2022-08-16T21:54:57.665Z,26.52
2022-08-16T21:57:26.262Z,26.50
2022-08-16T21:59:56.572Z,26.49
2022-08-16T22:02:35.633Z,26.46
2022-08-16T22:05:07.784Z,26.43
2022-08-16T22:07:36.319Z,26.45
2022-08-16T22:11:04.726Z,26.44
2022-08-16T22:12:55.297Z,26.43
2022-08-16T22:15:25.939Z,26.39
2022-08-16T22:17:58.082Z,26.38
2022-08-16T22:20:28.362Z,26.33
2022-08-16T22:23:07.593Z,26.28
2022-08-16T22:25:36.632Z,26.23
2022-08-16T22:28:06.356Z,26.19
2022-08-16T22:30:34.805Z,26.19
2022-08-16T22:33:09.634Z,26.14
2022-08-16T22:35:43.018Z,26.15
2022-08-16T22:38:56.717Z,26.14
2022-08-16T22:41:01.009Z,26.12
2022-08-16T22:43:30.801Z,26.11
2022-08-16T22:45:59.460Z,26.12
2022-08-16T22:48:29.982Z,26.11
2022-08-16T22:50:58.527Z,26.08
2022-08-16T22:53:27.887Z,26.07
2022-08-16T22:55:57.176Z,26.04
2022-08-16T22:58:34.183Z,26.01
2022-08-16T23:01:06.165Z,25.98
2022-08-16T23:03:36.520Z,25.95
2022-08-16T23:06:05.930Z,25.93
2022-08-16T23:08:39.602Z,25.91
2022-08-16T23:11:10.650Z,25.90
2022-08-16T23:13:52.661Z,25.88
2022-08-16T23:16:32.333Z,25.84
2022-08-16T23:19:03.427Z,25.82
2022-08-16T23:21:32.354Z,25.79
2022-08-16T23:24:01.008Z,25.77
2022-08-16T23:26:36.555Z,25.73
2022-08-16T23:29:23.864Z,25.71
2022-08-16T23:31:58.324Z,25.67
2022-08-16T23:34:29.778Z,25.63
2022-08-16T23:36:58.511Z,25.59
2022-08-16T23:39:27.156Z,25.55
2022-08-16T23:41:55.761Z,25.51
2022-08-16T23:44:55.698Z,25.51
2022-08-16T23:47:12.591Z,25.49
2022-08-16T23:49:59.855Z,25.47
2022-08-16T23:52:45.285Z,25.43
2022-08-16T23:55:21.379Z,25.39
2022-08-16T23:57:50.240Z,25.35
